Time;durP1;ratioP1;P1;durP2;ratioP2;P2;SDS_P1;SDS_P2;PMS_P1;PMS_P2;Temp;Humidity;BMP_temperature;BMP_pressure;BME280_temperature;BME280_humidity;BME280_pressure;Samples;Min_cycle;Max_cycle;Signal;HPM_P1;HPM_P2
2024/02/14 00:01:23;;;;;;;0.68;0.40;;;;;;;9.60;100.00;126870.31;5060871;28;20053;-71
2024/02/14 00:03:49;;;;;;;0.90;0.50;;;;;;;9.46;100.00;126890.63;5059309;28;20040;-71
2024/02/14 00:06:14;;;;;;;0.70;0.40;;;;;;;9.69;100.00;127000.91;5063591;28;20544;-70
2024/02/14 00:08:40;;;;;;;0.77;0.50;;;;;;;9.44;100.00;126951.34;5066560;28;20032;-73
2024/02/14 00:11:05;;;;;;;1.35;0.55;;;;;;;9.08;100.00;126932.50;5061699;28;20029;-71
2024/02/14 00:13:33;;;;;;;0.68;0.50;;;;;;;9.46;100.00;127010.78;5061699;28;20033;-71
2024/02/14 00:15:59;;;;;;;0.60;0.50;;;;;;;9.69;100.00;127105.75;5063055;28;20463;-70
2024/02/14 00:18:25;;;;;;;0.52;0.40;;;;;;;8.92;100.00;126926.56;5062452;28;20066;-71
2024/02/14 00:20:50;;;;;;;0.50;0.40;;;;;;;9.61;100.00;127146.06;5061412;28;20491;-73
2024/02/14 00:23:15;;;;;;;0.30;0.30;;;;;;;9.02;100.00;127019.38;5057572;28;20059;-71
2024/02/14 00:25:41;;;;;;;0.40;0.40;;;;;;;9.42;100.00;127057.03;5061023;28;20486;-73
2024/02/14 00:28:08;;;;;;;0.63;0.32;;;;;;;9.47;100.00;127095.78;5058550;28;20024;-72
2024/02/14 00:30:34;;;;;;;0.50;0.40;;;;;;;9.05;100.00;127033.44;5062179;28;20045;-71
2024/02/14 00:32:59;;;;;;;0.50;0.40;;;;;;;8.99;100.00;127025.78;5065539;28;20029;-71
2024/02/14 00:35:25;;;;;;;0.47;0.30;;;;;;;9.34;100.00;127013.38;5059640;28;20090;-71
2024/02/14 00:37:50;;;;;;;1.55;0.50;;;;;;;9.49;100.00;127054.03;5062130;28;20032;-71
2024/02/14 00:40:16;;;;;;;0.95;0.35;;;;;;;9.24;100.00;127012.53;5062974;28;20469;-71
2024/02/14 00:42:41;;;;;;;0.70;0.40;;;;;;;9.34;100.00;126996.56;5064826;28;20082;-71
2024/02/14 00:45:10;;;;;;;0.75;0.30;;;;;;;9.56;100.00;127044.84;5059765;28;20078;-72
2024/02/14 00:47:36;;;;;;;0.45;0.30;;;;;;;9.66;100.00;127118.78;5064950;28;20054;-72
2024/02/14 00:50:02;;;;;;;0.38;0.20;;;;;;;9.75;100.00;127107.25;5059843;28;20438;-71
2024/02/14 00:52:28;;;;;;;0.30;0.30;;;;;;;8.94;100.00;126829.69;5062400;28;20025;-71
2024/02/14 00:54:54;;;;;;;0.32;0.30;;;;;;;9.66;100.00;127061.03;5058442;28;20471;-71
2024/02/14 00:57:20;;;;;;;0.30;0.30;;;;;;;8.81;100.00;126826.53;5059928;28;20034;-71
2024/02/14 00:59:46;;;;;;;0.30;0.20;;;;;;;8.92;100.00;126773.28;5060834;28;20102;-71
2024/02/14 01:02:11;;;;;;;0.52;0.40;;;;;;;9.29;100.00;126881.09;5058268;28;20099;-70
2024/02/14 01:04:37;;;;;;;0.40;0.30;;;;;;;9.40;100.00;126773.03;5060756;28;20490;-71
2024/02/14 01:07:03;;;;;;;0.28;0.25;;;;;;;9.02;100.00;126771.53;5060711;28;20495;-70
2024/02/14 01:09:28;;;;;;;0.20;0.20;;;;;;;9.57;100.00;126870.50;5063059;28;20081;-70
2024/02/14 01:11:54;;;;;;;0.85;0.30;;;;;;;9.01;100.00;126744.97;5059715;28;20024;-71
2024/02/14 01:14:19;;;;;;;0.85;0.30;;;;;;;9.03;100.00;126694.47;5057982;28;20406;-73
2024/02/14 01:16:45;;;;;;;0.30;0.30;;;;;;;8.75;100.00;126661.63;5063185;28;20028;-75
2024/02/14 01:19:11;;;;;;;0.20;0.20;;;;;;;9.69;100.00;126810.53;5065665;28;20127;-70
2024/02/14 01:21:37;;;;;;;0.47;0.20;;;;;;;8.97;100.00;126605.09;5059930;28;20035;-70
2024/02/14 01:24:05;;;;;;;0.38;0.20;;;;;;;8.85;100.00;126490.25;5064867;28;20555;-71
2024/02/14 01:26:32;;;;;;;0.25;0.20;;;;;;;8.50;100.00;126456.44;5057445;28;20064;-71
2024/02/14 01:28:57;;;;;;;0.30;0.30;;;;;;;9.42;100.00;126554.88;5058544;28;20028;-71
2024/02/14 01:31:23;;;;;;;0.10;0.10;;;;;;;9.08;100.00;126425.09;5057410;28;20029;-71
2024/02/14 01:33:48;;;;;;;0.40;0.25;;;;;;;8.93;100.00;126393.34;5061081;28;20508;-72
2024/02/14 01:36:14;;;;;;;0.35;0.30;;;;;;;9.09;100.00;126383.75;5058853;28;20029;-71
2024/02/14 01:38:39;;;;;;;0.55;0.30;;;;;;;9.44;100.00;126395.50;5058626;28;20074;-71
2024/02/14 01:41:05;;;;;;;0.20;0.20;;;;;;;8.99;100.00;126261.94;5060115;28;20406;-71
2024/02/14 01:43:31;;;;;;;0.65;0.30;;;;;;;9.42;100.00;126299.25;5062842;28;20025;-71
2024/02/14 01:46:04;;;;;;;0.30;0.20;;;;;;;8.94;100.00;126191.09;5061278;28;20028;-71
2024/02/14 01:48:30;;;;;;;0.10;0.10;;;;;;;9.56;100.00;126227.66;5057926;28;20548;-72
2024/02/14 01:50:56;;;;;;;0.20;0.17;;;;;;;8.90;100.00;126010.47;5055758;28;20033;-70
2024/02/14 01:53:21;;;;;;;0.20;0.10;;;;;;;9.57;100.00;126159.66;5058039;28;20403;-71
2024/02/14 01:55:47;;;;;;;0.30;0.20;;;;;;;8.29;100.00;125788.34;5060715;28;20474;-70
2024/02/14 01:58:13;;;;;;;0.47;0.17;;;;;;;9.14;100.00;126010.06;5057859;28;20087;-70
2024/02/14 02:00:39;;;;;;;0.20;0.20;;;;;;;8.99;100.00;125882.41;5056097;28;20029;-71
2024/02/14 02:03:04;;;;;;;0.15;0.10;;;;;;;8.79;100.00;125777.88;5055633;28;20056;-69
2024/02/14 02:05:30;;;;;;;0.15;0.15;;;;;;;8.82;100.00;125799.50;5059583;28;20052;-71
2024/02/14 02:07:55;;;;;;;0.15;0.10;;;;;;;9.48;100.00;125896.31;5062164;28;20445;-70
2024/02/14 02:10:22;;;;;;;0.20;0.13;;;;;;;9.33;100.00;125771.66;5056766;28;20517;-71
2024/02/14 02:12:48;;;;;;;0.22;0.20;;;;;;;9.03;100.00;125782.50;5055956;28;20586;-70
2024/02/14 02:15:14;;;;;;;0.40;0.20;;;;;;;9.28;100.00;125777.50;5059333;28;20489;-76
2024/02/14 02:17:39;;;;;;;0.10;0.10;;;;;;;8.82;100.00;125720.34;5059075;28;20028;-70
2024/02/14 02:20:09;;;;;;;0.03;0.03;;;;;;;9.01;100.00;126194.63;5058472;28;20071;-72
2024/02/14 02:22:37;;;;;;;0.20;0.13;;;;;;;9.21;100.00;126160.28;5056927;28;20047;-71
2024/02/14 02:25:07;;;;;;;0.13;0.10;;;;;;;9.06;100.00;126134.72;5059891;28;20059;-70
2024/02/14 02:27:37;;;;;;;0.17;0.17;;;;;;;8.73;100.00;126057.34;5055774;28;20029;-70
2024/02/14 02:30:08;;;;;;;1.25;0.22;;;;;;;8.91;100.00;126057.06;5061533;28;20087;-71
2024/02/14 02:32:34;;;;;;;0.13;0.10;;;;;;;9.33;100.00;126106.44;5053414;28;20071;-70
2024/02/14 02:34:59;;;;;;;0.15;0.10;;;;;;;8.69;100.00;126009.06;5061535;28;20480;-70
2024/02/14 02:37:26;;;;;;;0.35;0.35;;;;;;;9.12;100.00;126097.81;5057502;28;20035;-71
2024/02/14 02:39:51;;;;;;;0.10;0.10;;;;;;;8.99;100.00;126042.25;5058231;28;20058;-70
2024/02/14 02:42:18;;;;;;;0.20;0.20;;;;;;;9.24;100.00;126013.28;5056214;28;20024;-70
2024/02/14 02:44:46;;;;;;;0.20;0.20;;;;;;;8.72;100.00;125915.84;5062292;28;20021;-71
2024/02/14 02:47:12;;;;;;;0.50;0.30;;;;;;;9.27;100.00;125972.13;5059646;28;20032;-70
2024/02/14 02:49:38;;;;;;;0.80;0.45;;;;;;;9.31;100.00;125966.75;5063701;28;20056;-72
2024/02/14 02:52:04;;;;;;;0.30;0.30;;;;;;;9.39;100.00;125998.94;5061297;28;21037;-70
2024/02/14 02:54:29;;;;;;;0.47;0.30;;;;;;;8.92;100.00;125932.97;5063102;28;20033;-70
2024/02/14 02:56:55;;;;;;;0.55;0.50;;;;;;;9.24;100.00;125904.47;5056548;28;20043;-72
2024/02/14 02:59:31;;;;;;;1.55;0.60;;;;;;;9.25;100.00;125857.00;5057519;28;20048;-70
2024/02/14 03:01:58;;;;;;;1.55;0.82;;;;;;;9.16;100.00;125808.41;5055896;28;20056;-70
2024/02/14 03:04:24;;;;;;;1.52;0.80;;;;;;;8.70;100.00;125712.50;5054555;28;20040;-70
2024/02/14 03:06:49;;;;;;;1.05;0.50;;;;;;;9.12;100.00;125728.44;5056453;28;20040;-70
2024/02/14 03:09:14;;;;;;;1.00;0.60;;;;;;;8.61;100.00;125678.25;5059402;28;20070;-69
2024/02/14 03:11:40;;;;;;;1.67;0.80;;;;;;;9.07;100.00;125709.19;5054076;28;20033;-70
2024/02/14 03:14:07;;;;;;;1.27;0.70;;;;;;;9.28;100.00;125776.44;5058763;28;20029;-71
2024/02/14 03:16:33;;;;;;;0.40;0.38;;;;;;;9.12;100.00;125737.59;5056137;28;20048;-71
2024/02/14 03:18:59;;;;;;;0.82;0.40;;;;;;;9.10;100.00;125643.97;5059618;28;20474;-71
2024/02/14 03:21:25;;;;;;;1.08;0.77;;;;;;;8.93;100.00;125673.13;5056749;28;20033;-69
2024/02/14 03:23:50;;;;;;;1.70;0.50;;;;;;;8.57;100.00;125612.63;5060940;28;20087;-69
2024/02/14 03:26:15;;;;;;;1.10;0.80;;;;;;;8.81;100.00;125634.00;5057218;28;20043;-69
2024/02/14 03:28:41;;;;;;;1.50;0.80;;;;;;;9.17;100.00;125703.19;5058414;28;20034;-69
2024/02/14 03:31:06;;;;;;;1.77;0.70;;;;;;;8.38;100.00;125548.13;5055269;28;20035;-71
2024/02/14 03:33:32;;;;;;;1.58;0.80;;;;;;;9.20;100.00;125801.50;5060674;28;20480;-70
2024/02/14 03:35:57;;;;;;;1.50;1.10;;;;;;;8.51;100.00;125625.50;5058192;28;20029;-70
2024/02/14 03:38:27;;;;;;;1.02;0.90;;;;;;;8.57;100.00;125629.00;5059626;28;20029;-70
2024/02/14 03:40:52;;;;;;;0.93;0.75;;;;;;;9.06;100.00;125714.75;5061480;28;20028;-71
2024/02/14 03:43:18;;;;;;;1.30;0.82;;;;;;;9.08;100.00;125734.28;5060859;28;20090;-75
2024/02/14 03:45:43;;;;;;;0.77;0.68;;;;;;;8.37;100.00;125495.03;5066289;28;20085;-71
2024/02/14 03:48:11;;;;;;;0.68;0.52;;;;;;;8.92;100.00;125687.78;5058520;28;20025;-72
2024/02/14 03:50:38;;;;;;;0.43;0.40;;;;;;;8.54;100.00;125637.97;5062097;28;20108;-70
2024/02/14 03:53:03;;;;;;;0.60;0.45;;;;;;;9.10;100.00;125771.69;5060148;28;20388;-71
2024/02/14 03:55:30;;;;;;;0.57;0.30;;;;;;;8.99;100.00;125768.97;5059474;28;20039;-70
2024/02/14 03:57:55;;;;;;;0.73;0.30;;;;;;;8.05;100.00;125610.19;5059092;28;20499;-71
2024/02/14 04:00:22;;;;;;;0.50;0.30;;;;;;;9.04;100.00;125788.22;5063159;28;20027;-71
2024/02/14 04:02:48;;;;;;;0.55;0.30;;;;;;;8.96;100.00;125818.81;5062106;28;20036;-71
2024/02/14 04:05:14;;;;;;;1.63;0.30;;;;;;;9.14;100.00;125865.50;5062140;28;20040;-70
2024/02/14 04:07:40;;;;;;;0.82;0.30;;;;;;;8.22;100.00;125631.75;5057994;28;20032;-69
2024/02/14 04:10:06;;;;;;;1.17;0.30;;;;;;;8.70;100.00;125696.13;5060347;28;20028;-69
2024/02/14 04:12:31;;;;;;;0.90;0.40;;;;;;;8.82;100.00;125730.56;5063687;28;20025;-72
2024/02/14 04:14:57;;;;;;;1.00;0.60;;;;;;;8.30;100.00;125684.34;5063400;28;20029;-70
2024/02/14 04:17:24;;;;;;;2.42;1.25;;;;;;;8.08;100.00;125668.56;5064599;28;20396;-70
2024/02/14 04:19:50;;;;;;;2.33;1.48;;;;;;;8.30;100.00;125880.78;5059055;28;20119;-70
2024/02/14 04:22:15;;;;;;;1.10;0.70;;;;;;;8.72;100.00;125913.31;5060981;28;20115;-74
2024/02/14 04:24:40;;;;;;;0.80;0.40;;;;;;;8.78;100.00;125955.53;5059885;28;20553;-72
2024/02/14 04:27:06;;;;;;;1.05;0.40;;;;;;;8.85;100.00;126140.38;5060175;28;20426;-72
2024/02/14 04:29:33;;;;;;;0.85;0.35;;;;;;;8.89;100.00;126282.69;5061662;28;20074;-71
2024/02/14 04:32:02;;;;;;;0.45;0.45;;;;;;;8.62;100.00;126179.59;5065945;28;20056;-72
2024/02/14 04:34:27;;;;;;;0.30;0.30;;;;;;;8.85;100.00;126308.91;5053569;28;20478;-72
2024/02/14 04:36:53;;;;;;;1.65;1.00;;;;;;;8.66;100.00;126282.50;5053491;28;20051;-74
2024/02/14 04:39:19;;;;;;;0.85;0.50;;;;;;;8.20;100.00;126233.63;5055061;28;20564;-72
2024/02/14 04:41:44;;;;;;;0.77;0.52;;;;;;;8.51;100.00;126309.47;5052426;28;20594;-73
2024/02/14 04:44:10;;;;;;;0.68;0.50;;;;;;;7.48;100.00;126091.00;5053635;28;20029;-72
2024/02/14 04:46:35;;;;;;;0.40;0.40;;;;;;;8.12;100.00;126298.28;5055302;28;20406;-72
2024/02/14 04:49:04;;;;;;;1.40;1.17;;;;;;;8.74;100.00;126543.09;5054527;28;20036;-73
2024/02/14 04:51:31;;;;;;;0.73;0.50;;;;;;;8.14;100.00;126464.28;5057044;28;20051;-74
2024/02/14 04:53:59;;;;;;;0.55;0.40;;;;;;;8.70;100.00;126569.28;5051582;28;20029;-74
2024/02/14 04:56:26;;;;;;;1.65;0.93;;;;;;;8.77;100.00;126653.13;5052230;28;20072;-74
2024/02/14 04:58:55;;;;;;;1.20;0.80;;;;;;;8.22;100.00;126686.88;5057308;28;20132;-71
2024/02/14 05:01:21;;;;;;;1.52;0.90;;;;;;;8.08;100.00;126614.78;5053037;28;20041;-74
2024/02/14 05:03:46;;;;;;;2.35;1.13;;;;;;;8.29;100.00;126691.56;5054470;28;20033;-72
2024/02/14 05:06:12;;;;;;;2.03;1.38;;;;;;;8.40;100.00;126716.00;5057248;28;20037;-73
2024/02/14 05:08:37;;;;;;;2.17;1.40;;;;;;;8.86;100.00;126953.16;5053935;28;20040;-74
2024/02/14 05:11:03;;;;;;;4.15;2.40;;;;;;;8.44;100.00;126949.09;5054539;28;20075;-73
2024/02/14 05:13:30;;;;;;;2.25;1.23;;;;;;;8.77;100.00;126978.50;5051595;28;20128;-71
2024/02/14 05:15:56;;;;;;;0.90;0.60;;;;;;;8.76;100.00;127051.94;5049209;28;20040;-71
2024/02/14 05:18:22;;;;;;;1.40;0.60;;;;;;;8.79;100.00;127124.75;5053799;28;20033;-70
2024/02/14 05:20:47;;;;;;;0.82;0.82;;;;;;;8.51;100.00;127055.94;5054195;28;20047;-69
2024/02/14 05:23:13;;;;;;;1.20;0.70;;;;;;;8.92;100.00;127271.44;5054410;28;20389;-71
2024/02/14 05:25:39;;;;;;;0.90;0.63;;;;;;;8.32;100.00;127177.75;5085758;28;20127;-72
2024/02/14 05:28:05;;;;;;;1.20;0.80;;;;;;;9.02;100.00;127343.88;5052737;28;20521;-71
2024/02/14 05:30:31;;;;;;;0.93;0.50;;;;;;;8.17;100.00;127185.03;5055162;28;20040;-74
2024/02/14 05:32:57;;;;;;;0.73;0.50;;;;;;;8.81;100.00;127345.06;5050108;28;20036;-72
2024/02/14 05:35:22;;;;;;;3.42;1.30;;;;;;;8.99;100.00;127403.94;5049569;28;20488;-73
2024/02/14 05:37:49;;;;;;;5.35;2.05;;;;;;;8.30;100.00;127237.28;5050746;28;20033;-72
2024/02/14 05:40:15;;;;;;;6.80;3.72;;;;;;;8.89;100.00;127374.91;5056717;28;20082;-72
2024/02/14 05:42:41;;;;;;;13.60;6.45;;;;;;;8.58;100.00;127371.06;5054864;28;20450;-71
2024/02/14 05:45:09;;;;;;;9.07;4.20;;;;;;;8.93;100.00;127457.53;5069563;28;20045;-70
2024/02/14 05:47:35;;;;;;;6.03;2.70;;;;;;;8.51;100.00;127413.38;5061773;28;21602;-71
2024/02/14 05:50:00;;;;;;;7.20;2.78;;;;;;;8.98;100.00;127718.63;5054521;28;20037;-70
2024/02/14 05:52:26;;;;;;;4.32;2.20;;;;;;;8.89;100.00;127562.50;5060818;28;20033;-72
2024/02/14 05:54:51;;;;;;;18.23;10.80;;;;;;;8.86;100.00;127596.94;5058093;28;20422;-72
2024/02/14 05:57:17;;;;;;;4.38;2.38;;;;;;;9.39;100.00;127737.38;5062788;28;20036;-72
2024/02/14 05:59:42;;;;;;;9.02;6.78;;;;;;;9.32;100.00;127709.63;5057151;28;20490;-73
2024/02/14 06:02:09;;;;;;;2.78;1.90;;;;;;;8.80;100.00;127562.59;5058001;28;20037;-71
2024/02/14 06:04:35;;;;;;;4.90;4.05;;;;;;;8.78;100.00;127559.38;5053219;28;20075;-70
2024/02/14 06:07:01;;;;;;;4.65;3.47;;;;;;;8.64;100.00;127460.47;5062115;28;20108;-73
2024/02/14 06:09:27;;;;;;;5.82;2.72;;;;;;;9.25;100.00;127640.97;5056117;28;20128;-71
2024/02/14 06:11:52;;;;;;;3.53;2.85;;;;;;;9.33;100.00;127728.16;5056486;28;20106;-72
2024/02/14 06:14:18;;;;;;;3.45;2.50;;;;;;;8.95;100.00;127518.03;5056399;28;20038;-71
2024/02/14 06:16:44;;;;;;;4.35;2.78;;;;;;;8.18;100.00;127439.78;5057599;28;20480;-71
2024/02/14 06:19:10;;;;;;;4.45;2.13;;;;;;;9.21;100.00;127624.75;5054978;28;20040;-73
2024/02/14 06:21:36;;;;;;;5.57;2.80;;;;;;;9.19;100.00;127658.81;5056113;28;20545;-71
2024/02/14 06:24:03;;;;;;;2.90;2.20;;;;;;;9.15;100.00;127599.13;5055437;28;20024;-71
2024/02/14 06:26:30;;;;;;;4.70;2.38;;;;;;;8.53;100.00;127570.84;5059826;28;20032;-72
2024/02/14 06:28:55;;;;;;;3.85;1.73;;;;;;;9.14;100.00;127677.28;5054775;28;20128;-74
2024/02/14 06:31:22;;;;;;;3.08;2.53;;;;;;;9.16;100.00;127795.50;5057833;28;20546;-71
2024/02/14 06:33:48;;;;;;;7.22;5.72;;;;;;;9.26;100.00;127830.81;5059097;28;20021;-71
2024/02/14 06:36:13;;;;;;;3.13;2.00;;;;;;;9.26;100.00;127910.06;5054814;28;20113;-72
2024/02/14 06:38:39;;;;;;;8.88;5.80;;;;;;;9.33;100.00;127977.69;5061950;28;20040;-72
2024/02/14 06:41:05;;;;;;;2.53;1.80;;;;;;;9.34;100.00;128020.75;5055961;28;20119;-72
2024/02/14 06:43:30;;;;;;;3.15;1.40;;;;;;;9.22;100.00;128008.88;5058280;28;20060;-71
2024/02/14 06:45:56;;;;;;;2.25;1.40;;;;;;;9.66;100.00;128286.44;5057756;28;20530;-71
2024/02/14 06:48:23;;;;;;;3.05;1.95;;;;;;;9.44;100.00;128219.75;5057839;28;20082;-71
2024/02/14 06:50:49;;;;;;;2.95;2.10;;;;;;;9.69;100.00;128317.34;5062208;28;20557;-71
2024/02/14 06:53:15;;;;;;;2.63;1.92;;;;;;;9.37;100.00;128342.81;5059923;28;20430;-70
2024/02/14 06:55:40;;;;;;;2.97;2.10;;;;;;;9.71;100.00;128388.19;5061379;28;20040;-72
2024/02/14 06:58:06;;;;;;;3.08;1.90;;;;;;;9.10;100.00;128248.97;5058935;28;20051;-70
2024/02/14 07:00:32;;;;;;;3.00;2.70;;;;;;;9.33;100.00;128375.13;5061256;28;20024;-71
2024/02/14 07:02:57;;;;;;;2.97;1.40;;;;;;;9.84;100.00;128453.09;5057398;28;20032;-70
2024/02/14 07:05:23;;;;;;;1.77;1.50;;;;;;;9.74;100.00;128402.34;5058749;28;20116;-71
2024/02/14 07:07:48;;;;;;;1.70;1.45;;;;;;;9.34;100.00;128381.31;5058102;28;20391;-71
2024/02/14 07:10:14;;;;;;;3.33;1.77;;;;;;;9.78;100.00;128395.59;5057165;28;20040;-70
2024/02/14 07:12:39;;;;;;;3.92;2.55;;;;;;;9.72;100.00;128428.75;5056203;28;20037;-71
2024/02/14 07:15:06;;;;;;;3.22;2.17;;;;;;;9.71;100.00;128306.31;5056169;28;20032;-72
2024/02/14 07:17:31;;;;;;;2.40;1.60;;;;;;;9.69;100.00;128369.63;5055906;28;20418;-70
2024/02/14 07:19:57;;;;;;;2.83;1.38;;;;;;;9.54;100.00;128442.25;5057117;28;20037;-69
2024/02/14 07:22:22;;;;;;;3.50;1.95;;;;;;;9.94;100.00;128461.81;5057554;28;20032;-70
2024/02/14 07:24:48;;;;;;;3.33;2.53;;;;;;;9.41;100.00;128337.53;5058404;28;20112;-70
2024/02/14 07:27:14;;;;;;;8.70;4.80;;;;;;;10.02;100.00;128445.72;5054038;28;20042;-70
2024/02/14 07:29:40;;;;;;;4.90;3.70;;;;;;;9.78;100.00;128391.56;5058580;28;20079;-72
2024/02/14 07:32:08;;;;;;;3.80;2.58;;;;;;;9.29;100.00;128173.69;5058616;28;20041;-71
2024/02/14 07:34:34;;;;;;;4.68;2.20;;;;;;;9.31;100.00;128101.25;5057312;28;20108;-72
2024/02/14 07:36:59;;;;;;;3.83;2.72;;;;;;;8.90;100.00;127858.44;5055894;28;20123;-71
2024/02/14 07:39:25;;;;;;;4.75;2.40;;;;;;;9.54;100.00;127885.69;5052469;28;20036;-71
2024/02/14 07:41:57;;;;;;;2.42;1.38;;;;;;;9.90;100.00;127712.44;5057927;28;21753;-71
2024/02/14 07:44:22;;;;;;;1.75;1.02;;;;;;;9.69;100.00;127708.41;5054954;28;20025;-71
2024/02/14 07:46:49;;;;;;;1.65;1.10;;;;;;;9.82;100.00;127619.63;5056441;28;20403;-71
2024/02/14 07:49:14;;;;;;;2.95;1.00;;;;;;;9.65;100.00;127552.56;5055225;28;20722;-72
2024/02/14 07:51:40;;;;;;;3.33;1.50;;;;;;;9.91;100.00;127466.31;5060425;28;20111;-71
2024/02/14 07:54:06;;;;;;;2.10;1.10;;;;;;;10.07;100.00;127381.22;5058137;28;20119;-74
2024/02/14 07:56:31;;;;;;;3.13;1.52;;;;;;;10.17;100.00;127274.59;5060863;28;20037;-71
2024/02/14 07:59:02;;;;;;;4.30;1.90;;;;;;;10.18;100.00;127102.63;5055414;28;20055;-71
2024/02/14 08:01:28;;;;;;;2.25;1.35;;;;;;;10.42;100.00;127096.28;5059800;28;20476;-71
2024/02/14 08:03:54;;;;;;;4.97;2.25;;;;;;;9.73;100.00;126712.69;5055325;28;20020;-71
2024/02/14 08:06:20;;;;;;;2.50;1.30;;;;;;;10.03;100.00;126670.38;5055661;28;20119;-72
2024/02/14 08:08:45;;;;;;;4.30;2.38;;;;;;;10.21;100.00;126494.66;5060789;28;20123;-75
2024/02/14 08:11:11;;;;;;;3.53;2.00;;;;;;;10.05;100.00;126273.94;5061198;28;20419;-71
2024/02/14 08:13:39;;;;;;;5.95;2.00;;;;;;;9.67;100.00;126022.25;5056416;28;20483;-70
2024/02/14 08:16:05;;;;;;;3.15;1.30;;;;;;;9.79;100.00;125955.50;5055301;28;20039;-70
2024/02/14 08:18:30;;;;;;;5.47;2.35;;;;;;;10.16;100.00;125807.38;5050384;28;20422;-71
2024/02/14 08:20:56;;;;;;;3.67;2.10;;;;;;;9.84;100.00;125577.31;5059585;28;20032;-71
2024/02/14 08:23:21;;;;;;;3.10;1.95;;;;;;;9.99;100.00;125505.47;5065434;28;20047;-71
2024/02/14 08:25:48;;;;;;;3.15;2.03;;;;;;;10.12;100.00;125338.41;5059565;28;20059;-71
2024/02/14 08:28:14;;;;;;;5.05;3.00;;;;;;;10.31;100.00;125383.38;5061011;28;20020;-71
2024/02/14 08:30:40;;;;;;;7.45;3.17;;;;;;;10.18;100.00;125195.94;5054307;28;20560;-74
2024/02/14 08:33:05;;;;;;;3.00;1.98;;;;;;;10.33;100.00;125155.75;5059981;28;20029;-71
2024/02/14 08:35:30;;;;;;;3.22;1.92;;;;;;;10.49;100.00;125195.88;5057167;28;20052;-71
2024/02/14 08:37:56;;;;;;;5.38;2.53;;;;;;;10.00;100.00;124857.91;5057770;28;20486;-73
2024/02/14 08:40:21;;;;;;;3.95;2.45;;;;;;;10.26;100.00;124845.78;5065812;28;20025;-72
2024/02/14 08:42:47;;;;;;;6.82;3.70;;;;;;;10.06;100.00;124696.50;5072297;28;20025;-72
2024/02/14 08:45:12;;;;;;;7.93;3.83;;;;;;;9.79;100.00;124555.75;5059987;28;20414;-73
2024/02/14 08:47:38;;;;;;;6.40;3.65;;;;;;;10.06;100.00;124568.63;5063704;28;20052;-71
2024/02/14 08:50:04;;;;;;;7.97;3.60;;;;;;;10.34;100.00;124530.84;5059306;28;20056;-73
2024/02/14 08:52:30;;;;;;;5.68;3.53;;;;;;;10.47;100.00;124528.75;5057979;28;20039;-73
2024/02/14 08:54:55;;;;;;;6.63;3.22;;;;;;;10.49;100.00;124422.88;5058400;28;20041;-72
2024/02/14 08:57:22;;;;;;;5.63;2.65;;;;;;;9.97;100.00;124121.28;5058708;28;20069;-72
2024/02/14 08:59:48;;;;;;;3.25;2.10;;;;;;;9.46;100.00;124086.91;5062301;28;20475;-71
2024/02/14 09:02:14;;;;;;;3.25;2.03;;;;;;;10.38;100.00;124145.13;5063595;28;20032;-73
2024/02/14 09:04:44;;;;;;;10.00;7.05;;;;;;;10.42;100.00;124161.09;5058878;28;20058;-72
2024/02/14 09:07:10;;;;;;;4.10;2.70;;;;;;;10.13;100.00;123918.25;5057404;28;20045;-71
2024/02/14 09:09:36;;;;;;;4.63;3.20;;;;;;;10.09;100.00;123882.81;5058816;28;20045;-70
2024/02/14 09:12:02;;;;;;;5.53;3.20;;;;;;;10.43;100.00;123961.06;5056551;28;20107;-71
2024/02/14 09:14:31;;;;;;;4.38;3.40;;;;;;;10.28;100.00;123708.91;5058251;28;20156;-73
2024/02/14 09:16:57;;;;;;;4.47;2.70;;;;;;;10.22;100.00;123715.41;5057219;28;20022;-71
2024/02/14 09:19:23;;;;;;;2.90;1.77;;;;;;;9.90;100.00;123666.00;5057132;28;20028;-71
2024/02/14 09:21:49;;;;;;;1.52;1.23;;;;;;;9.91;100.00;123403.25;5061154;28;20072;-71
2024/02/14 09:24:14;;;;;;;2.28;1.20;;;;;;;10.22;100.00;123462.19;5059621;28;20032;-73
2024/02/14 09:26:40;;;;;;;2.30;1.50;;;;;;;10.37;100.00;123408.78;5057887;28;20036;-73
2024/02/14 09:29:05;;;;;;;3.38;1.25;;;;;;;10.19;100.00;123196.69;5062097;28;20020;-73
2024/02/14 09:31:31;;;;;;;2.20;1.48;;;;;;;9.87;100.00;123078.06;5058483;28;20095;-71
2024/02/14 09:33:57;;;;;;;1.73;1.30;;;;;;;10.28;100.00;122996.31;5060802;28;20456;-72
2024/02/14 09:36:24;;;;;;;2.08;1.52;;;;;;;10.39;100.00;122951.44;5059618;28;20107;-72
2024/02/14 09:38:49;;;;;;;2.65;2.25;;;;;;;10.25;100.00;122777.91;5060436;28;20028;-72
2024/02/14 09:41:36;;;;;;;5.57;4.18;;;;;;;10.41;100.00;122670.09;5061457;28;20043;-73
2024/02/14 09:44:01;;;;;;;3.10;2.08;;;;;;;10.30;100.00;122495.63;5057283;28;20057;-73
2024/02/14 09:46:30;;;;;;;3.17;1.95;;;;;;;10.20;100.00;122394.31;5056630;28;20109;-73
2024/02/14 09:48:59;;;;;;;3.85;2.08;;;;;;;9.83;100.00;122289.41;5057928;28;20074;-74
2024/02/14 09:51:24;;;;;;;4.10;2.95;;;;;;;10.06;100.00;122258.25;5061002;28;20052;-74
2024/02/14 09:53:50;;;;;;;4.30;2.70;;;;;;;10.38;100.00;122374.94;5059534;28;20106;-73
2024/02/14 09:56:18;;;;;;;7.65;3.30;;;;;;;10.52;100.00;122305.34;5058789;28;20411;-72
2024/02/14 09:58:50;;;;;;;7.00;3.33;;;;;;;9.75;100.00;122043.13;5061935;28;20044;-72
2024/02/14 10:01:15;;;;;;;5.70;4.93;;;;;;;10.02;100.00;122068.63;5057526;28;20032;-72
2024/02/14 10:03:41;;;;;;;9.25;5.55;;;;;;;9.93;100.00;122075.81;5060961;28;20037;-72
2024/02/14 10:06:06;;;;;;;4.55;3.50;;;;;;;10.23;100.00;122015.97;5058831;28;20479;-72
2024/02/14 10:08:32;;;;;;;6.68;3.58;;;;;;;10.13;100.00;122197.47;5059159;28;20086;-73
2024/02/14 10:10:59;;;;;;;3.90;3.47;;;;;;;10.44;100.00;122144.25;4707872;28;9999935;-73
2024/02/14 10:13:28;;;;;;;3.70;2.70;;;;;;;9.85;100.00;121995.59;5059227;28;20032;-73
2024/02/14 10:15:54;;;;;;;3.75;3.00;;;;;;;10.53;100.00;122145.25;5055739;28;20059;-74
2024/02/14 10:18:20;;;;;;;4.53;2.65;;;;;;;10.32;100.00;122018.97;5057305;28;20033;-71
2024/02/14 10:20:55;;;;;;;3.38;2.70;;;;;;;9.71;100.00;121810.16;5056443;28;20037;-72
2024/02/14 10:23:21;;;;;;;2.70;2.13;;;;;;;10.51;100.00;121917.13;5057340;28;20095;-72
2024/02/14 10:25:53;;;;;;;3.72;2.08;;;;;;;10.15;100.00;121806.41;5056769;28;20043;-71
2024/02/14 10:28:21;;;;;;;3.22;2.30;;;;;;;10.70;100.00;121750.16;5058375;28;20028;-73
2024/02/14 10:30:49;;;;;;;3.70;2.67;;;;;;;10.12;100.00;121493.56;5056070;28;20036;-71
2024/02/14 10:33:15;;;;;;;3.70;2.80;;;;;;;10.81;100.00;121498.78;5056297;28;20437;-72
2024/02/14 10:35:42;;;;;;;6.00;4.05;;;;;;;10.21;100.00;121207.72;5055136;28;20041;-72
2024/02/14 10:38:09;;;;;;;3.92;2.90;;;;;;;10.50;100.00;121113.63;5057579;28;20028;-72
2024/02/14 10:40:36;;;;;;;5.40;2.90;;;;;;;10.08;100.00;120974.31;5055227;28;20033;-72
2024/02/14 10:43:02;;;;;;;5.15;3.15;;;;;;;10.44;100.00;120956.72;5049890;28;20032;-71
2024/02/14 10:45:27;;;;;;;4.28;3.33;;;;;;;10.59;100.00;120938.50;5052301;28;20025;-74
2024/02/14 10:47:57;;;;;;;4.68;3.45;;;;;;;10.36;100.00;120718.16;5056146;28;20097;-73
2024/02/14 10:50:24;;;;;;;2.97;2.28;;;;;;;10.53;100.00;120743.81;5055432;28;20025;-72
2024/02/14 10:52:53;;;;;;;3.83;2.53;;;;;;;10.25;100.00;120712.31;5055707;28;20024;-74
2024/02/14 10:55:20;;;;;;;5.45;3.70;;;;;;;11.01;100.00;120770.09;5059394;28;20505;-71
2024/02/14 10:57:46;;;;;;;3.20;2.03;;;;;;;10.48;100.00;120411.06;5054528;28;20092;-73
2024/02/14 11:00:15;;;;;;;3.00;1.40;;;;;;;10.51;100.00;120285.72;5050328;28;20051;-72
2024/02/14 11:02:42;;;;;;;2.25;1.40;;;;;;;9.94;100.00;120113.34;5055310;28;20041;-73
2024/02/14 11:05:17;;;;;;;1.90;1.40;;;;;;;10.25;100.00;120062.22;5059974;28;20039;-72
2024/02/14 11:07:52;;;;;;;2.63;1.40;;;;;;;9.30;100.00;119924.56;5051966;28;20029;-72
2024/02/14 11:10:18;;;;;;;3.50;1.55;;;;;;;10.15;100.00;120032.94;5054400;28;20033;-72
2024/02/14 11:12:44;;;;;;;3.22;2.42;;;;;;;9.85;100.00;120017.63;5059789;28;20037;-71
2024/02/14 11:15:30;;;;;;;6.00;3.88;;;;;;;10.48;100.00;120086.97;5057504;28;20029;-75
2024/02/14 11:18:04;;;;;;;4.18;3.10;;;;;;;10.17;100.00;119893.88;5057260;28;20082;-72
2024/02/14 11:20:35;;;;;;;4.05;2.30;;;;;;;10.38;100.00;119952.88;5050709;28;20044;-72